sensor_id;sensor_type;location;lat;lon;timestamp;temperature;humidity
22629;DHT22;11481;53.694;9.910;2023-07-02T00:02:17;15.80;99.90
22629;DHT22;11481;53.694;9.910;2023-07-02T00:04:48;15.80;99.90
22629;DHT22;11481;53.694;9.910;2023-07-02T00:07:15;15.80;99.90
22629;DHT22;11481;53.694;9.910;2023-07-02T00:09:42;15.70;99.90
22629;DHT22;11481;53.694;9.910;2023-07-02T00:12:09;15.60;99.90
22629;DHT22;11481;53.694;9.910;2023-07-02T00:14:36;15.60;99.90
22629;DHT22;11481;53.694;9.910;2023-07-02T00:17:03;15.60;99.90
22629;DHT22;11481;53.694;9.910;2023-07-02T00:19:31;15.60;99.90
22629;DHT22;11481;53.694;9.910;2023-07-02T00:21:58;15.60;99.90
22629;DHT22;11481;53.694;9.910;2023-07-02T00:24:24;15.60;99.90
22629;DHT22;11481;53.694;9.910;2023-07-02T00:26:51;15.70;99.90
22629;DHT22;11481;53.694;9.910;2023-07-02T00:29:18;15.70;99.90
22629;DHT22;11481;53.694;9.910;2023-07-02T00:31:44;15.80;99.90
22629;DHT22;11481;53.694;9.910;2023-07-02T00:34:11;15.70;99.90
22629;DHT22;11481;53.694;9.910;2023-07-02T00:36:38;15.70;99.90
22629;DHT22;11481;53.694;9.910;2023-07-02T00:39:04;15.70;99.90
22629;DHT22;11481;53.694;9.910;2023-07-02T00:41:31;15.80;99.90
22629;DHT22;11481;53.694;9.910;2023-07-02T00:43:58;15.80;99.90
22629;DHT22;11481;53.694;9.910;2023-07-02T00:46:25;15.70;99.90
22629;DHT22;11481;53.694;9.910;2023-07-02T00:48:54;15.70;99.90
22629;DHT22;11481;53.694;9.910;2023-07-02T00:51:23;15.70;99.90
22629;DHT22;11481;53.694;9.910;2023-07-02T00:53:52;15.70;99.90
22629;DHT22;11481;53.694;9.910;2023-07-02T00:56:19;15.70;99.90
22629;DHT22;11481;53.694;9.910;2023-07-02T00:58:47;15.70;99.90
22629;DHT22;11481;53.694;9.910;2023-07-02T01:01:25;15.70;99.90
22629;DHT22;11481;53.694;9.910;2023-07-02T01:03:53;15.70;99.90
22629;DHT22;11481;53.694;9.910;2023-07-02T01:06:26;15.70;99.90
22629;DHT22;11481;53.694;9.910;2023-07-02T01:08:54;15.70;99.90
22629;DHT22;11481;53.694;9.910;2023-07-02T01:11:25;15.70;99.90
22629;DHT22;11481;53.694;9.910;2023-07-02T01:13:55;15.70;99.90
22629;DHT22;11481;53.694;9.910;2023-07-02T01:16:24;15.70;99.90
22629;DHT22;11481;53.694;9.910;2023-07-02T01:18:51;15.70;99.90
22629;DHT22;11481;53.694;9.910;2023-07-02T01:21:23;15.70;99.90
22629;DHT22;11481;53.694;9.910;2023-07-02T01:23:50;15.70;99.90
22629;DHT22;11481;53.694;9.910;2023-07-02T01:26:18;15.70;99.90
22629;DHT22;11481;53.694;9.910;2023-07-02T01:28:45;15.80;99.90
22629;DHT22;11481;53.694;9.910;2023-07-02T01:31:12;15.80;99.90
22629;DHT22;11481;53.694;9.910;2023-07-02T01:33:39;15.80;99.90
22629;DHT22;11481;53.694;9.910;2023-07-02T01:36:06;15.80;99.90
22629;DHT22;11481;53.694;9.910;2023-07-02T01:38:32;15.80;99.90
22629;DHT22;11481;53.694;9.910;2023-07-02T01:40:59;15.70;99.90
22629;DHT22;11481;53.694;9.910;2023-07-02T01:43:25;15.80;99.90
22629;DHT22;11481;53.694;9.910;2023-07-02T01:45:52;15.80;99.90
22629;DHT22;11481;53.694;9.910;2023-07-02T01:48:19;15.80;99.90
22629;DHT22;11481;53.694;9.910;2023-07-02T01:50:46;15.80;99.90
22629;DHT22;11481;53.694;9.910;2023-07-02T01:53:13;15.80;99.90
22629;DHT22;11481;53.694;9.910;2023-07-02T01:55:39;15.80;99.90
22629;DHT22;11481;53.694;9.910;2023-07-02T01:58:06;15.80;99.90
22629;DHT22;11481;53.694;9.910;2023-07-02T02:00:33;15.80;99.90
22629;DHT22;11481;53.694;9.910;2023-07-02T02:03:00;15.80;99.90
22629;DHT22;11481;53.694;9.910;2023-07-02T02:05:27;15.80;99.90
22629;DHT22;11481;53.694;9.910;2023-07-02T02:07:53;15.70;99.90
22629;DHT22;11481;53.694;9.910;2023-07-02T02:10:20;15.70;99.90
22629;DHT22;11481;53.694;9.910;2023-07-02T02:12:47;15.70;99.90
22629;DHT22;11481;53.694;9.910;2023-07-02T02:15:13;15.70;99.90
22629;DHT22;11481;53.694;9.910;2023-07-02T02:17:40;15.60;99.90
22629;DHT22;11481;53.694;9.910;2023-07-02T02:20:08;15.60;99.90
22629;DHT22;11481;53.694;9.910;2023-07-02T02:22:35;15.50;99.90
22629;DHT22;11481;53.694;9.910;2023-07-02T02:25:02;15.50;99.90
22629;DHT22;11481;53.694;9.910;2023-07-02T02:27:30;15.50;99.90
22629;DHT22;11481;53.694;9.910;2023-07-02T02:29:57;15.40;99.90
22629;DHT22;11481;53.694;9.910;2023-07-02T02:32:23;15.40;99.90
22629;DHT22;11481;53.694;9.910;2023-07-02T02:34:50;15.40;99.90
22629;DHT22;11481;53.694;9.910;2023-07-02T02:37:18;15.40;99.90
22629;DHT22;11481;53.694;9.910;2023-07-02T02:39:44;15.30;99.90
22629;DHT22;11481;53.694;9.910;2023-07-02T02:42:11;15.30;99.90
22629;DHT22;11481;53.694;9.910;2023-07-02T02:44:38;15.30;99.90
22629;DHT22;11481;53.694;9.910;2023-07-02T02:47:05;15.30;99.90
22629;DHT22;11481;53.694;9.910;2023-07-02T02:49:32;15.30;99.90
22629;DHT22;11481;53.694;9.910;2023-07-02T02:51:58;15.30;99.90
22629;DHT22;11481;53.694;9.910;2023-07-02T02:54:25;15.40;99.90
22629;DHT22;11481;53.694;9.910;2023-07-02T02:56:51;15.30;99.90
22629;DHT22;11481;53.694;9.910;2023-07-02T02:59:18;15.30;99.90
22629;DHT22;11481;53.694;9.910;2023-07-02T03:01:45;15.30;99.90
22629;DHT22;11481;53.694;9.910;2023-07-02T03:04:12;15.20;99.90
22629;DHT22;11481;53.694;9.910;2023-07-02T03:06:39;15.30;99.90
22629;DHT22;11481;53.694;9.910;2023-07-02T03:09:06;15.30;99.90
22629;DHT22;11481;53.694;9.910;2023-07-02T03:11:32;15.30;99.90
22629;DHT22;11481;53.694;9.910;2023-07-02T03:13:59;15.30;99.90
22629;DHT22;11481;53.694;9.910;2023-07-02T03:16:26;15.20;99.90
22629;DHT22;11481;53.694;9.910;2023-07-02T03:18:53;15.20;99.90
22629;DHT22;11481;53.694;9.910;2023-07-02T03:21:19;15.20;99.90
22629;DHT22;11481;53.694;9.910;2023-07-02T03:23:46;15.30;99.90
22629;DHT22;11481;53.694;9.910;2023-07-02T03:26:13;15.30;99.90
22629;DHT22;11481;53.694;9.910;2023-07-02T03:28:39;15.30;99.90
22629;DHT22;11481;53.694;9.910;2023-07-02T03:31:06;15.20;99.90
22629;DHT22;11481;53.694;9.910;2023-07-02T03:33:33;15.20;99.90
22629;DHT22;11481;53.694;9.910;2023-07-02T03:35:59;15.30;99.90
22629;DHT22;11481;53.694;9.910;2023-07-02T03:38:26;15.20;99.90
22629;DHT22;11481;53.694;9.910;2023-07-02T03:40:53;15.20;99.90
22629;DHT22;11481;53.694;9.910;2023-07-02T03:43:19;15.20;99.90
22629;DHT22;11481;53.694;9.910;2023-07-02T03:45:46;15.20;99.90
22629;DHT22;11481;53.694;9.910;2023-07-02T03:48:13;15.20;99.90
22629;DHT22;11481;53.694;9.910;2023-07-02T03:50:41;15.10;99.90
22629;DHT22;11481;53.694;9.910;2023-07-02T03:53:08;15.20;99.90
22629;DHT22;11481;53.694;9.910;2023-07-02T03:55:35;15.10;99.90
22629;DHT22;11481;53.694;9.910;2023-07-02T03:58:01;15.20;99.90
22629;DHT22;11481;53.694;9.910;2023-07-02T04:00:28;15.10;99.90
22629;DHT22;11481;53.694;9.910;2023-07-02T04:02:55;15.10;99.90
22629;DHT22;11481;53.694;9.910;2023-07-02T04:05:21;15.10;99.90
22629;DHT22;11481;53.694;9.910;2023-07-02T04:07:49;15.10;99.90
22629;DHT22;11481;53.694;9.910;2023-07-02T04:10:16;15.10;99.90
22629;DHT22;11481;53.694;9.910;2023-07-02T04:12:43;15.10;99.90
22629;DHT22;11481;53.694;9.910;2023-07-02T04:15:11;15.20;99.90
22629;DHT22;11481;53.694;9.910;2023-07-02T04:17:37;15.20;99.90
22629;DHT22;11481;53.694;9.910;2023-07-02T04:20:04;15.20;99.90
22629;DHT22;11481;53.694;9.910;2023-07-02T04:22:32;15.20;99.90
22629;DHT22;11481;53.694;9.910;2023-07-02T04:24:59;15.20;99.90
22629;DHT22;11481;53.694;9.910;2023-07-02T04:27:39;15.20;99.90
22629;DHT22;11481;53.694;9.910;2023-07-02T04:30:17;15.10;99.90
22629;DHT22;11481;53.694;9.910;2023-07-02T04:32:43;15.20;99.90
22629;DHT22;11481;53.694;9.910;2023-07-02T04:35:10;15.20;99.90
22629;DHT22;11481;53.694;9.910;2023-07-02T04:37:40;15.20;99.90
22629;DHT22;11481;53.694;9.910;2023-07-02T04:40:07;15.30;99.90
22629;DHT22;11481;53.694;9.910;2023-07-02T04:42:42;15.30;99.90
22629;DHT22;11481;53.694;9.910;2023-07-02T04:45:14;15.30;99.90
22629;DHT22;11481;53.694;9.910;2023-07-02T04:47:44;15.30;99.90
22629;DHT22;11481;53.694;9.910;2023-07-02T04:50:11;15.30;99.90
22629;DHT22;11481;53.694;9.910;2023-07-02T04:52:38;15.30;99.90
22629;DHT22;11481;53.694;9.910;2023-07-02T04:55:06;15.40;99.90
22629;DHT22;11481;53.694;9.910;2023-07-02T04:57:32;15.30;99.90
22629;DHT22;11481;53.694;9.910;2023-07-02T04:59:59;15.40;99.90
22629;DHT22;11481;53.694;9.910;2023-07-02T05:02:26;15.50;99.90
22629;DHT22;11481;53.694;9.910;2023-07-02T05:04:52;15.50;99.90
22629;DHT22;11481;53.694;9.910;2023-07-02T05:07:19;15.50;99.90
22629;DHT22;11481;53.694;9.910;2023-07-02T05:09:46;15.50;99.90
22629;DHT22;11481;53.694;9.910;2023-07-02T05:12:15;15.50;99.90
22629;DHT22;11481;53.694;9.910;2023-07-02T05:14:41;15.60;99.90
22629;DHT22;11481;53.694;9.910;2023-07-02T05:17:08;15.60;99.90
22629;DHT22;11481;53.694;9.910;2023-07-02T05:19:35;15.60;99.90
22629;DHT22;11481;53.694;9.910;2023-07-02T05:22:01;15.50;99.90
22629;DHT22;11481;53.694;9.910;2023-07-02T05:24:28;15.50;99.90
22629;DHT22;11481;53.694;9.910;2023-07-02T05:26:55;15.50;99.90
22629;DHT22;11481;53.694;9.910;2023-07-02T05:29:21;15.50;99.90
22629;DHT22;11481;53.694;9.910;2023-07-02T05:31:48;15.60;99.90
22629;DHT22;11481;53.694;9.910;2023-07-02T05:34:15;15.60;99.90
22629;DHT22;11481;53.694;9.910;2023-07-02T05:36:42;15.60;99.90
22629;DHT22;11481;53.694;9.910;2023-07-02T05:39:08;15.70;99.90
22629;DHT22;11481;53.694;9.910;2023-07-02T05:41:35;15.70;99.90
22629;DHT22;11481;53.694;9.910;2023-07-02T05:44:02;15.70;99.90
22629;DHT22;11481;53.694;9.910;2023-07-02T05:46:28;15.80;99.90
22629;DHT22;11481;53.694;9.910;2023-07-02T05:48:55;15.80;99.90
22629;DHT22;11481;53.694;9.910;2023-07-02T05:51:24;15.80;99.90
22629;DHT22;11481;53.694;9.910;2023-07-02T05:53:51;16.00;99.90
22629;DHT22;11481;53.694;9.910;2023-07-02T05:56:18;15.90;99.90
22629;DHT22;11481;53.694;9.910;2023-07-02T05:58:46;15.90;99.90
22629;DHT22;11481;53.694;9.910;2023-07-02T06:01:14;15.90;99.90
22629;DHT22;11481;53.694;9.910;2023-07-02T06:03:41;16.10;99.90
22629;DHT22;11481;53.694;9.910;2023-07-02T06:06:09;16.10;99.90
22629;DHT22;11481;53.694;9.910;2023-07-02T06:08:37;16.10;99.90
22629;DHT22;11481;53.694;9.910;2023-07-02T06:11:04;16.20;99.90
22629;DHT22;11481;53.694;9.910;2023-07-02T06:13:31;16.20;99.90
22629;DHT22;11481;53.694;9.910;2023-07-02T06:15:58;16.30;99.90
22629;DHT22;11481;53.694;9.910;2023-07-02T06:18:24;16.30;99.90
22629;DHT22;11481;53.694;9.910;2023-07-02T06:20:51;16.50;99.90
22629;DHT22;11481;53.694;9.910;2023-07-02T06:23:18;16.40;99.90
22629;DHT22;11481;53.694;9.910;2023-07-02T06:25:44;16.50;99.90
22629;DHT22;11481;53.694;9.910;2023-07-02T06:28:11;16.50;99.90
22629;DHT22;11481;53.694;9.910;2023-07-02T06:30:40;16.40;99.90
22629;DHT22;11481;53.694;9.910;2023-07-02T06:33:07;16.40;99.90
22629;DHT22;11481;53.694;9.910;2023-07-02T06:35:36;16.40;99.90
22629;DHT22;11481;53.694;9.910;2023-07-02T06:38:03;16.50;99.90
22629;DHT22;11481;53.694;9.910;2023-07-02T06:40:30;16.60;99.90
22629;DHT22;11481;53.694;9.910;2023-07-02T06:42:57;16.50;99.90
22629;DHT22;11481;53.694;9.910;2023-07-02T06:45:24;16.60;99.90
22629;DHT22;11481;53.694;9.910;2023-07-02T06:47:52;16.70;99.90
22629;DHT22;11481;53.694;9.910;2023-07-02T06:50:19;16.90;99.90
22629;DHT22;11481;53.694;9.910;2023-07-02T06:52:46;17.10;99.90
22629;DHT22;11481;53.694;9.910;2023-07-02T06:55:13;17.10;99.90
22629;DHT22;11481;53.694;9.910;2023-07-02T06:57:44;17.10;99.90
22629;DHT22;11481;53.694;9.910;2023-07-02T07:00:14;17.10;99.90
22629;DHT22;11481;53.694;9.910;2023-07-02T07:02:41;17.10;99.90
22629;DHT22;11481;53.694;9.910;2023-07-02T07:05:08;16.90;99.90
22629;DHT22;11481;53.694;9.910;2023-07-02T07:07:36;16.80;99.90
22629;DHT22;11481;53.694;9.910;2023-07-02T07:10:03;16.80;99.90
22629;DHT22;11481;53.694;9.910;2023-07-02T07:12:30;16.70;99.90
22629;DHT22;11481;53.694;9.910;2023-07-02T07:14:57;16.80;99.90
22629;DHT22;11481;53.694;9.910;2023-07-02T07:17:23;16.70;99.90
22629;DHT22;11481;53.694;9.910;2023-07-02T07:19:50;16.70;99.90
22629;DHT22;11481;53.694;9.910;2023-07-02T07:22:17;16.60;99.90
22629;DHT22;11481;53.694;9.910;2023-07-02T07:24:43;16.60;99.90
22629;DHT22;11481;53.694;9.910;2023-07-02T07:27:10;16.60;99.90
22629;DHT22;11481;53.694;9.910;2023-07-02T07:29:37;16.70;99.90
22629;DHT22;11481;53.694;9.910;2023-07-02T07:32:04;16.60;99.90
22629;DHT22;11481;53.694;9.910;2023-07-02T07:34:31;16.60;99.90
22629;DHT22;11481;53.694;9.910;2023-07-02T07:36:57;16.60;99.90
22629;DHT22;11481;53.694;9.910;2023-07-02T07:39:24;16.70;99.90
22629;DHT22;11481;53.694;9.910;2023-07-02T07:41:50;16.80;99.90
22629;DHT22;11481;53.694;9.910;2023-07-02T07:44:17;16.80;99.90
22629;DHT22;11481;53.694;9.910;2023-07-02T07:46:46;16.70;99.90
22629;DHT22;11481;53.694;9.910;2023-07-02T07:49:13;16.80;99.90
22629;DHT22;11481;53.694;9.910;2023-07-02T07:51:40;17.10;99.90
22629;DHT22;11481;53.694;9.910;2023-07-02T07:54:06;17.30;99.90
22629;DHT22;11481;53.694;9.910;2023-07-02T07:56:33;17.30;99.90
22629;DHT22;11481;53.694;9.910;2023-07-02T07:59:00;17.50;99.90
22629;DHT22;11481;53.694;9.910;2023-07-02T08:01:26;17.50;99.90
22629;DHT22;11481;53.694;9.910;2023-07-02T08:03:54;17.50;99.90
22629;DHT22;11481;53.694;9.910;2023-07-02T08:06:21;17.50;99.90
22629;DHT22;11481;53.694;9.910;2023-07-02T08:08:48;17.70;99.90
22629;DHT22;11481;53.694;9.910;2023-07-02T08:11:17;17.60;99.90
22629;DHT22;11481;53.694;9.910;2023-07-02T08:13:43;17.80;99.90
22629;DHT22;11481;53.694;9.910;2023-07-02T08:16:11;17.70;99.90
22629;DHT22;11481;53.694;9.910;2023-07-02T08:18:38;17.50;99.90
22629;DHT22;11481;53.694;9.910;2023-07-02T08:21:04;17.30;99.90
22629;DHT22;11481;53.694;9.910;2023-07-02T08:23:33;17.10;99.90
22629;DHT22;11481;53.694;9.910;2023-07-02T08:25:59;17.00;99.90
22629;DHT22;11481;53.694;9.910;2023-07-02T08:28:26;16.70;99.90
22629;DHT22;11481;53.694;9.910;2023-07-02T08:30:53;16.60;99.90
22629;DHT22;11481;53.694;9.910;2023-07-02T08:33:19;16.60;99.90
22629;DHT22;11481;53.694;9.910;2023-07-02T08:35:47;16.30;99.90
22629;DHT22;11481;53.694;9.910;2023-07-02T08:38:15;16.30;99.90
22629;DHT22;11481;53.694;9.910;2023-07-02T08:40:41;16.30;99.90
22629;DHT22;11481;53.694;9.910;2023-07-02T08:43:08;16.30;99.90
22629;DHT22;11481;53.694;9.910;2023-07-02T08:45:35;16.40;99.90
22629;DHT22;11481;53.694;9.910;2023-07-02T08:48:02;16.60;99.90
22629;DHT22;11481;53.694;9.910;2023-07-02T08:50:29;16.90;99.90
22629;DHT22;11481;53.694;9.910;2023-07-02T08:52:56;17.10;99.90
22629;DHT22;11481;53.694;9.910;2023-07-02T08:55:23;17.30;99.90
22629;DHT22;11481;53.694;9.910;2023-07-02T08:57:53;17.40;99.90
22629;DHT22;11481;53.694;9.910;2023-07-02T09:00:21;17.50;99.90
22629;DHT22;11481;53.694;9.910;2023-07-02T09:02:49;17.70;99.90
22629;DHT22;11481;53.694;9.910;2023-07-02T09:05:16;17.90;99.90
22629;DHT22;11481;53.694;9.910;2023-07-02T09:07:48;17.90;99.90
22629;DHT22;11481;53.694;9.910;2023-07-02T09:10:27;17.90;99.90
22629;DHT22;11481;53.694;9.910;2023-07-02T09:13:07;17.80;99.90
22629;DHT22;11481;53.694;9.910;2023-07-02T09:15:41;17.70;99.90
22629;DHT22;11481;53.694;9.910;2023-07-02T09:18:19;17.70;99.90
22629;DHT22;11481;53.694;9.910;2023-07-02T09:20:49;15.70;99.90
22629;DHT22;11481;53.694;9.910;2023-07-02T09:23:17;15.10;99.90
22629;DHT22;11481;53.694;9.910;2023-07-02T09:25:43;14.90;99.90
22629;DHT22;11481;53.694;9.910;2023-07-02T09:28:19;14.80;99.90
22629;DHT22;11481;53.694;9.910;2023-07-02T09:30:54;15.00;99.90
22629;DHT22;11481;53.694;9.910;2023-07-02T09:33:27;15.20;99.90
22629;DHT22;11481;53.694;9.910;2023-07-02T09:35:54;15.20;99.90
22629;DHT22;11481;53.694;9.910;2023-07-02T09:38:22;15.40;99.90
22629;DHT22;11481;53.694;9.910;2023-07-02T09:40:52;15.50;99.90
22629;DHT22;11481;53.694;9.910;2023-07-02T09:43:21;15.60;99.90
22629;DHT22;11481;53.694;9.910;2023-07-02T09:45:50;15.80;99.90
22629;DHT22;11481;53.694;9.910;2023-07-02T09:48:18;16.10;99.90
22629;DHT22;11481;53.694;9.910;2023-07-02T09:50:48;16.20;99.90
22629;DHT22;11481;53.694;9.910;2023-07-02T09:53:16;16.50;99.90
22629;DHT22;11481;53.694;9.910;2023-07-02T09:55:43;16.80;99.90
22629;DHT22;11481;53.694;9.910;2023-07-02T09:58:10;17.00;99.90
22629;DHT22;11481;53.694;9.910;2023-07-02T10:00:42;17.30;99.90
22629;DHT22;11481;53.694;9.910;2023-07-02T10:03:08;17.60;99.90
22629;DHT22;11481;53.694;9.910;2023-07-02T10:05:35;17.70;99.90
22629;DHT22;11481;53.694;9.910;2023-07-02T10:08:13;17.90;99.90
22629;DHT22;11481;53.694;9.910;2023-07-02T10:10:40;17.90;99.90
22629;DHT22;11481;53.694;9.910;2023-07-02T10:13:07;18.10;99.90
22629;DHT22;11481;53.694;9.910;2023-07-02T10:15:34;18.20;99.90
22629;DHT22;11481;53.694;9.910;2023-07-02T10:18:05;18.10;99.90
22629;DHT22;11481;53.694;9.910;2023-07-02T10:20:40;18.20;99.90
22629;DHT22;11481;53.694;9.910;2023-07-02T10:23:08;18.20;99.90
22629;DHT22;11481;53.694;9.910;2023-07-02T10:25:37;18.30;99.90
22629;DHT22;11481;53.694;9.910;2023-07-02T10:28:20;18.40;99.90
22629;DHT22;11481;53.694;9.910;2023-07-02T10:30:48;18.50;99.90
22629;DHT22;11481;53.694;9.910;2023-07-02T10:33:17;18.60;99.90
22629;DHT22;11481;53.694;9.910;2023-07-02T10:35:46;18.80;99.90
22629;DHT22;11481;53.694;9.910;2023-07-02T10:38:24;18.80;99.90
22629;DHT22;11481;53.694;9.910;2023-07-02T10:40:59;18.80;99.90
22629;DHT22;11481;53.694;9.910;2023-07-02T10:43:30;18.70;99.90
22629;DHT22;11481;53.694;9.910;2023-07-02T10:45:59;18.90;99.90
22629;DHT22;11481;53.694;9.910;2023-07-02T10:48:30;19.00;99.90
22629;DHT22;11481;53.694;9.910;2023-07-02T10:50:57;19.00;99.90
22629;DHT22;11481;53.694;9.910;2023-07-02T10:53:23;19.00;99.90
22629;DHT22;11481;53.694;9.910;2023-07-02T10:55:54;19.00;99.90
22629;DHT22;11481;53.694;9.910;2023-07-02T10:58:23;18.80;99.90
22629;DHT22;11481;53.694;9.910;2023-07-02T11:00:51;18.70;99.90
22629;DHT22;11481;53.694;9.910;2023-07-02T11:03:21;18.90;99.90
22629;DHT22;11481;53.694;9.910;2023-07-02T11:05:49;19.00;99.90
22629;DHT22;11481;53.694;9.910;2023-07-02T11:08:17;19.10;99.90
22629;DHT22;11481;53.694;9.910;2023-07-02T11:10:44;18.90;99.90
22629;DHT22;11481;53.694;9.910;2023-07-02T11:13:19;19.10;99.90
22629;DHT22;11481;53.694;9.910;2023-07-02T11:15:46;18.90;99.90
22629;DHT22;11481;53.694;9.910;2023-07-02T11:18:17;18.90;99.90
22629;DHT22;11481;53.694;9.910;2023-07-02T11:20:48;18.10;99.90
22629;DHT22;11481;53.694;9.910;2023-07-02T11:23:22;17.70;99.90
22629;DHT22;11481;53.694;9.910;2023-07-02T11:25:59;17.10;99.90
22629;DHT22;11481;53.694;9.910;2023-07-02T11:28:26;16.60;99.90
22629;DHT22;11481;53.694;9.910;2023-07-02T11:30:54;16.70;99.90
22629;DHT22;11481;53.694;9.910;2023-07-02T11:33:38;16.80;99.90
22629;DHT22;11481;53.694;9.910;2023-07-02T11:36:08;17.00;99.90
22629;DHT22;11481;53.694;9.910;2023-07-02T11:38:46;17.40;99.90
22629;DHT22;11481;53.694;9.910;2023-07-02T11:41:14;17.90;99.90
22629;DHT22;11481;53.694;9.910;2023-07-02T11:43:41;17.90;99.90
22629;DHT22;11481;53.694;9.910;2023-07-02T11:46:10;18.00;99.90
22629;DHT22;11481;53.694;9.910;2023-07-02T11:48:36;18.00;99.90
22629;DHT22;11481;53.694;9.910;2023-07-02T11:51:03;17.90;99.90
22629;DHT22;11481;53.694;9.910;2023-07-02T11:53:30;18.10;99.90
22629;DHT22;11481;53.694;9.910;2023-07-02T11:55:56;18.20;99.90
22629;DHT22;11481;53.694;9.910;2023-07-02T11:58:23;18.10;99.90
22629;DHT22;11481;53.694;9.910;2023-07-02T12:00:50;17.90;99.90
22629;DHT22;11481;53.694;9.910;2023-07-02T12:03:18;19.10;99.90
22629;DHT22;11481;53.694;9.910;2023-07-02T12:05:45;17.90;99.90
22629;DHT22;11481;53.694;9.910;2023-07-02T12:08:12;17.50;99.90
22629;DHT22;11481;53.694;9.910;2023-07-02T12:10:40;17.20;99.90
22629;DHT22;11481;53.694;9.910;2023-07-02T12:13:07;17.20;99.90
22629;DHT22;11481;53.694;9.910;2023-07-02T12:15:33;17.40;99.90
22629;DHT22;11481;53.694;9.910;2023-07-02T12:18:00;17.40;99.90
22629;DHT22;11481;53.694;9.910;2023-07-02T12:20:27;17.80;99.90
22629;DHT22;11481;53.694;9.910;2023-07-02T12:22:54;18.20;99.90
22629;DHT22;11481;53.694;9.910;2023-07-02T12:25:27;18.20;99.90
22629;DHT22;11481;53.694;9.910;2023-07-02T12:27:55;18.40;99.90
22629;DHT22;11481;53.694;9.910;2023-07-02T12:30:22;18.60;99.90
22629;DHT22;11481;53.694;9.910;2023-07-02T12:32:49;18.70;99.90
22629;DHT22;11481;53.694;9.910;2023-07-02T12:35:16;18.60;99.90
22629;DHT22;11481;53.694;9.910;2023-07-02T12:37:47;18.70;99.90
22629;DHT22;11481;53.694;9.910;2023-07-02T12:40:17;18.60;99.90
22629;DHT22;11481;53.694;9.910;2023-07-02T12:42:45;18.50;99.90
22629;DHT22;11481;53.694;9.910;2023-07-02T12:45:13;18.70;99.90
22629;DHT22;11481;53.694;9.910;2023-07-02T12:47:47;19.00;99.90
22629;DHT22;11481;53.694;9.910;2023-07-02T12:50:14;19.20;99.90
22629;DHT22;11481;53.694;9.910;2023-07-02T12:52:41;19.20;99.90
22629;DHT22;11481;53.694;9.910;2023-07-02T12:55:08;19.00;99.90
22629;DHT22;11481;53.694;9.910;2023-07-02T12:57:35;19.00;99.90
22629;DHT22;11481;53.694;9.910;2023-07-02T13:00:02;19.00;99.90
22629;DHT22;11481;53.694;9.910;2023-07-02T13:02:32;19.20;99.90
22629;DHT22;11481;53.694;9.910;2023-07-02T13:04:59;19.10;99.90
22629;DHT22;11481;53.694;9.910;2023-07-02T13:07:26;18.90;99.90
22629;DHT22;11481;53.694;9.910;2023-07-02T13:09:53;18.80;99.90
22629;DHT22;11481;53.694;9.910;2023-07-02T13:12:19;18.90;99.90
22629;DHT22;11481;53.694;9.910;2023-07-02T13:14:46;19.40;99.90
22629;DHT22;11481;53.694;9.910;2023-07-02T13:17:13;19.70;99.90
22629;DHT22;11481;53.694;9.910;2023-07-02T13:19:40;19.90;99.90
22629;DHT22;11481;53.694;9.910;2023-07-02T13:22:06;20.00;99.90
22629;DHT22;11481;53.694;9.910;2023-07-02T13:24:34;20.00;99.90
22629;DHT22;11481;53.694;9.910;2023-07-02T13:27:13;20.10;99.90
22629;DHT22;11481;53.694;9.910;2023-07-02T13:29:41;19.80;99.90
22629;DHT22;11481;53.694;9.910;2023-07-02T13:32:08;19.80;99.90
22629;DHT22;11481;53.694;9.910;2023-07-02T13:34:35;19.80;99.90
22629;DHT22;11481;53.694;9.910;2023-07-02T13:37:02;19.90;99.90
22629;DHT22;11481;53.694;9.910;2023-07-02T13:39:33;20.20;99.90
22629;DHT22;11481;53.694;9.910;2023-07-02T13:42:00;20.30;99.90
22629;DHT22;11481;53.694;9.910;2023-07-02T13:44:28;19.90;99.90
22629;DHT22;11481;53.694;9.910;2023-07-02T13:46:55;19.90;99.90
22629;DHT22;11481;53.694;9.910;2023-07-02T13:49:22;19.90;99.90
22629;DHT22;11481;53.694;9.910;2023-07-02T13:51:48;19.90;99.90
22629;DHT22;11481;53.694;9.910;2023-07-02T13:54:17;20.00;99.90
22629;DHT22;11481;53.694;9.910;2023-07-02T13:56:46;19.90;99.90
22629;DHT22;11481;53.694;9.910;2023-07-02T13:59:17;19.90;99.90
22629;DHT22;11481;53.694;9.910;2023-07-02T14:01:44;19.90;99.90
22629;DHT22;11481;53.694;9.910;2023-07-02T14:04:11;19.70;99.90
22629;DHT22;11481;53.694;9.910;2023-07-02T14:06:38;19.40;99.90
22629;DHT22;11481;53.694;9.910;2023-07-02T14:09:05;19.40;99.90
22629;DHT22;11481;53.694;9.910;2023-07-02T14:11:34;19.40;99.90
22629;DHT22;11481;53.694;9.910;2023-07-02T14:14:02;19.40;99.90
22629;DHT22;11481;53.694;9.910;2023-07-02T14:16:29;19.70;99.90
22629;DHT22;11481;53.694;9.910;2023-07-02T14:18:56;20.00;99.90
22629;DHT22;11481;53.694;9.910;2023-07-02T14:21:25;20.40;99.90
22629;DHT22;11481;53.694;9.910;2023-07-02T14:23:51;20.10;99.90
22629;DHT22;11481;53.694;9.910;2023-07-02T14:26:21;19.80;99.90
22629;DHT22;11481;53.694;9.910;2023-07-02T14:28:47;19.40;99.90
22629;DHT22;11481;53.694;9.910;2023-07-02T14:31:16;19.40;99.90
22629;DHT22;11481;53.694;9.910;2023-07-02T14:33:43;19.40;99.90
22629;DHT22;11481;53.694;9.910;2023-07-02T14:36:10;19.60;99.90
22629;DHT22;11481;53.694;9.910;2023-07-02T14:38:37;19.70;99.90
22629;DHT22;11481;53.694;9.910;2023-07-02T14:41:05;20.00;99.90
22629;DHT22;11481;53.694;9.910;2023-07-02T14:43:32;20.00;99.90
22629;DHT22;11481;53.694;9.910;2023-07-02T14:46:02;19.90;99.90
22629;DHT22;11481;53.694;9.910;2023-07-02T14:48:30;19.90;99.90
22629;DHT22;11481;53.694;9.910;2023-07-02T14:50:59;20.10;99.90
22629;DHT22;11481;53.694;9.910;2023-07-02T14:53:27;20.00;99.90
22629;DHT22;11481;53.694;9.910;2023-07-02T14:55:56;19.80;99.90
22629;DHT22;11481;53.694;9.910;2023-07-02T14:58:24;19.80;99.90
22629;DHT22;11481;53.694;9.910;2023-07-02T15:00:53;20.00;99.90
22629;DHT22;11481;53.694;9.910;2023-07-02T15:03:23;20.00;99.90
22629;DHT22;11481;53.694;9.910;2023-07-02T15:05:51;19.90;99.90
22629;DHT22;11481;53.694;9.910;2023-07-02T15:08:20;19.90;99.90
22629;DHT22;11481;53.694;9.910;2023-07-02T15:10:52;19.80;99.90
22629;DHT22;11481;53.694;9.910;2023-07-02T15:13:19;20.00;99.90
22629;DHT22;11481;53.694;9.910;2023-07-02T15:15:51;19.90;99.90
22629;DHT22;11481;53.694;9.910;2023-07-02T15:18:18;19.70;99.90
22629;DHT22;11481;53.694;9.910;2023-07-02T15:20:49;19.50;99.90
22629;DHT22;11481;53.694;9.910;2023-07-02T15:23:16;19.40;99.90
22629;DHT22;11481;53.694;9.910;2023-07-02T15:25:43;19.80;99.90
22629;DHT22;11481;53.694;9.910;2023-07-02T15:28:18;19.70;99.90
22629;DHT22;11481;53.694;9.910;2023-07-02T15:30:52;19.70;99.90
22629;DHT22;11481;53.694;9.910;2023-07-02T15:33:20;19.90;99.90
22629;DHT22;11481;53.694;9.910;2023-07-02T15:35:47;20.00;99.90